sensor_id;sensor_type;location;lat;lon;timestamp;P1;durP1;ratioP1;P2;durP2;ratioP2
71773;SDS011;59607;52.130;5.430;2023-04-24T00:01:08;0.30;;;0.20;;
71773;SDS011;59607;52.130;5.430;2023-04-24T00:03:35;0.37;;;0.30;;
71773;SDS011;59607;52.130;5.430;2023-04-24T00:06:12;0.57;;;0.30;;
71773;SDS011;59607;52.130;5.430;2023-04-24T00:08:38;1.08;;;0.28;;
71773;SDS011;59607;52.130;5.430;2023-04-24T00:11:12;0.75;;;0.20;;
71773;SDS011;59607;52.130;5.430;2023-04-24T00:13:39;0.30;;;0.20;;
71773;SDS011;59607;52.130;5.430;2023-04-24T00:16:05;0.40;;;0.30;;
71773;SDS011;59607;52.130;5.430;2023-04-24T00:18:39;0.70;;;0.40;;
71773;SDS011;59607;52.130;5.430;2023-04-24T00:21:05;0.90;;;0.60;;
71773;SDS011;59607;52.130;5.430;2023-04-24T00:23:35;0.70;;;0.47;;
71773;SDS011;59607;52.130;5.430;2023-04-24T00:26:01;2.05;;;0.40;;
71773;SDS011;59607;52.130;5.430;2023-04-24T00:28:28;0.80;;;0.30;;
71773;SDS011;59607;52.130;5.430;2023-04-24T00:30:56;0.75;;;0.40;;
71773;SDS011;59607;52.130;5.430;2023-04-24T00:33:27;0.60;;;0.60;;
71773;SDS011;59607;52.130;5.430;2023-04-24T00:35:54;0.60;;;0.40;;
71773;SDS011;59607;52.130;5.430;2023-04-24T00:38:20;0.73;;;0.30;;
71773;SDS011;59607;52.130;5.430;2023-04-24T00:40:50;0.53;;;0.30;;
71773;SDS011;59607;52.130;5.430;2023-04-24T00:43:16;0.60;;;0.40;;
71773;SDS011;59607;52.130;5.430;2023-04-24T00:45:43;0.70;;;0.50;;
71773;SDS011;59607;52.130;5.430;2023-04-24T00:48:14;1.67;;;0.73;;
71773;SDS011;59607;52.130;5.430;2023-04-24T00:50:42;0.98;;;0.38;;
71773;SDS011;59607;52.130;5.430;2023-04-24T00:53:12;0.80;;;0.50;;
71773;SDS011;59607;52.130;5.430;2023-04-24T00:55:38;1.20;;;0.50;;
71773;SDS011;59607;52.130;5.430;2023-04-24T00:58:05;1.95;;;0.70;;
71773;SDS011;59607;52.130;5.430;2023-04-24T01:00:32;1.30;;;0.80;;
71773;SDS011;59607;52.130;5.430;2023-04-24T01:03:04;1.98;;;0.77;;
71773;SDS011;59607;52.130;5.430;2023-04-24T01:05:32;1.13;;;0.60;;
71773;SDS011;59607;52.130;5.430;2023-04-24T01:08:02;1.27;;;0.80;;
71773;SDS011;59607;52.130;5.430;2023-04-24T01:10:32;1.45;;;0.85;;
71773;SDS011;59607;52.130;5.430;2023-04-24T01:13:01;1.20;;;0.80;;
71773;SDS011;59607;52.130;5.430;2023-04-24T01:15:38;2.30;;;1.05;;
71773;SDS011;59607;52.130;5.430;2023-04-24T01:18:06;2.27;;;1.10;;
71773;SDS011;59607;52.130;5.430;2023-04-24T01:20:33;1.83;;;1.00;;
71773;SDS011;59607;52.130;5.430;2023-04-24T01:23:01;1.80;;;0.88;;
71773;SDS011;59607;52.130;5.430;2023-04-24T01:25:36;3.17;;;1.02;;
71773;SDS011;59607;52.130;5.430;2023-04-24T01:28:03;1.95;;;0.95;;
71773;SDS011;59607;52.130;5.430;2023-04-24T01:30:32;3.30;;;1.03;;
71773;SDS011;59607;52.130;5.430;2023-04-24T01:33:02;1.48;;;1.25;;
71773;SDS011;59607;52.130;5.430;2023-04-24T01:35:28;1.50;;;1.40;;
71773;SDS011;59607;52.130;5.430;2023-04-24T01:37:57;1.45;;;1.35;;
71773;SDS011;59607;52.130;5.430;2023-04-24T01:40:28;2.10;;;1.40;;
71773;SDS011;59607;52.130;5.430;2023-04-24T01:42:55;1.60;;;1.37;;
71773;SDS011;59607;52.130;5.430;2023-04-24T01:45:27;1.73;;;1.45;;
71773;SDS011;59607;52.130;5.430;2023-04-24T01:47:53;1.83;;;1.60;;
71773;SDS011;59607;52.130;5.430;2023-04-24T01:50:26;2.40;;;1.80;;
71773;SDS011;59607;52.130;5.430;2023-04-24T01:52:54;2.35;;;1.88;;
71773;SDS011;59607;52.130;5.430;2023-04-24T01:55:21;3.67;;;1.73;;
71773;SDS011;59607;52.130;5.430;2023-04-24T01:57:50;2.40;;;2.20;;
71773;SDS011;59607;52.130;5.430;2023-04-24T02:00:22;2.50;;;2.00;;
71773;SDS011;59607;52.130;5.430;2023-04-24T02:02:53;3.67;;;2.20;;
71773;SDS011;59607;52.130;5.430;2023-04-24T02:05:22;1.67;;;1.58;;
71773;SDS011;59607;52.130;5.430;2023-04-24T02:07:48;1.63;;;1.53;;
71773;SDS011;59607;52.130;5.430;2023-04-24T02:10:23;1.98;;;1.73;;
71773;SDS011;59607;52.130;5.430;2023-04-24T02:12:51;1.75;;;1.60;;
71773;SDS011;59607;52.130;5.430;2023-04-24T02:15:31;2.65;;;1.60;;
71773;SDS011;59607;52.130;5.430;2023-04-24T02:18:01;2.55;;;2.10;;
71773;SDS011;59607;52.130;5.430;2023-04-24T02:20:30;1.83;;;1.60;;
71773;SDS011;59607;52.130;5.430;2023-04-24T02:22:58;2.70;;;1.52;;
71773;SDS011;59607;52.130;5.430;2023-04-24T02:25:30;2.03;;;1.58;;
71773;SDS011;59607;52.130;5.430;2023-04-24T02:27:56;1.80;;;1.42;;
71773;SDS011;59607;52.130;5.430;2023-04-24T02:30:25;1.70;;;1.42;;
71773;SDS011;59607;52.130;5.430;2023-04-24T02:32:55;1.40;;;1.10;;
71773;SDS011;59607;52.130;5.430;2023-04-24T02:35:21;2.45;;;1.30;;
71773;SDS011;59607;52.130;5.430;2023-04-24T02:37:51;1.52;;;1.42;;
71773;SDS011;59607;52.130;5.430;2023-04-24T02:40:18;1.58;;;1.48;;
71773;SDS011;59607;52.130;5.430;2023-04-24T02:42:45;2.97;;;1.42;;
71773;SDS011;59607;52.130;5.430;2023-04-24T02:45:12;5.63;;;1.60;;
71773;SDS011;59607;52.130;5.430;2023-04-24T02:47:39;2.42;;;1.60;;
71773;SDS011;59607;52.130;5.430;2023-04-24T02:50:09;2.17;;;1.98;;
71773;SDS011;59607;52.130;5.430;2023-04-24T02:52:35;2.47;;;1.90;;
71773;SDS011;59607;52.130;5.430;2023-04-24T02:55:07;1.73;;;1.63;;
71773;SDS011;59607;52.130;5.430;2023-04-24T02:57:34;3.10;;;1.30;;
71773;SDS011;59607;52.130;5.430;2023-04-24T03:00:04;1.90;;;1.70;;
71773;SDS011;59607;52.130;5.430;2023-04-24T03:02:36;2.20;;;2.00;;
71773;SDS011;59607;52.130;5.430;2023-04-24T03:05:12;2.70;;;2.10;;
71773;SDS011;59607;52.130;5.430;2023-04-24T03:07:39;2.63;;;2.05;;
71773;SDS011;59607;52.130;5.430;2023-04-24T03:10:08;2.83;;;2.27;;
71773;SDS011;59607;52.130;5.430;2023-04-24T03:12:39;3.65;;;1.92;;
71773;SDS011;59607;52.130;5.430;2023-04-24T03:15:05;2.13;;;1.92;;
71773;SDS011;59607;52.130;5.430;2023-04-24T03:17:39;1.95;;;1.77;;
71773;SDS011;59607;52.130;5.430;2023-04-24T03:20:06;3.10;;;2.30;;
71773;SDS011;59607;52.130;5.430;2023-04-24T03:22:35;3.67;;;2.17;;
71773;SDS011;59607;52.130;5.430;2023-04-24T03:25:05;2.35;;;1.92;;
71773;SDS011;59607;52.130;5.430;2023-04-24T03:27:32;2.58;;;2.22;;
71773;SDS011;59607;52.130;5.430;2023-04-24T03:30:07;2.35;;;1.67;;
71773;SDS011;59607;52.130;5.430;2023-04-24T03:32:34;1.95;;;1.70;;
71773;SDS011;59607;52.130;5.430;2023-04-24T03:35:10;2.10;;;1.87;;
71773;SDS011;59607;52.130;5.430;2023-04-24T03:37:37;2.28;;;1.80;;
71773;SDS011;59607;52.130;5.430;2023-04-24T03:40:09;1.67;;;1.40;;
71773;SDS011;59607;52.130;5.430;2023-04-24T03:42:38;2.30;;;2.10;;
71773;SDS011;59607;52.130;5.430;2023-04-24T03:45:10;1.80;;;1.60;;
71773;SDS011;59607;52.130;5.430;2023-04-24T03:47:37;2.47;;;1.87;;
71773;SDS011;59607;52.130;5.430;2023-04-24T03:50:03;2.90;;;1.90;;
71773;SDS011;59607;52.130;5.430;2023-04-24T03:52:34;2.95;;;2.33;;
71773;SDS011;59607;52.130;5.430;2023-04-24T03:55:01;2.10;;;1.90;;
71773;SDS011;59607;52.130;5.430;2023-04-24T03:57:27;3.00;;;2.28;;
71773;SDS011;59607;52.130;5.430;2023-04-24T03:59:56;2.40;;;2.10;;
71773;SDS011;59607;52.130;5.430;2023-04-24T04:02:24;2.70;;;2.20;;
71773;SDS011;59607;52.130;5.430;2023-04-24T04:04:51;3.17;;;2.05;;
71773;SDS011;59607;52.130;5.430;2023-04-24T04:07:18;2.97;;;2.20;;
71773;SDS011;59607;52.130;5.430;2023-04-24T04:09:50;2.90;;;1.80;;
71773;SDS011;59607;52.130;5.430;2023-04-24T04:12:16;2.57;;;1.60;;
71773;SDS011;59607;52.130;5.430;2023-04-24T04:14:43;2.47;;;1.30;;
71773;SDS011;59607;52.130;5.430;2023-04-24T04:17:15;1.45;;;1.15;;
71773;SDS011;59607;52.130;5.430;2023-04-24T04:19:42;1.30;;;1.17;;
71773;SDS011;59607;52.130;5.430;2023-04-24T04:22:11;1.70;;;1.33;;
71773;SDS011;59607;52.130;5.430;2023-04-24T04:24:37;3.53;;;1.47;;
71773;SDS011;59607;52.130;5.430;2023-04-24T04:27:08;4.15;;;2.28;;
71773;SDS011;59607;52.130;5.430;2023-04-24T04:29:48;1.80;;;1.30;;
71773;SDS011;59607;52.130;5.430;2023-04-24T04:32:23;1.95;;;1.70;;
71773;SDS011;59607;52.130;5.430;2023-04-24T04:34:49;2.45;;;2.20;;
71773;SDS011;59607;52.130;5.430;2023-04-24T04:37:21;2.57;;;2.10;;
71773;SDS011;59607;52.130;5.430;2023-04-24T04:39:50;2.13;;;1.92;;
71773;SDS011;59607;52.130;5.430;2023-04-24T04:42:19;3.00;;;2.00;;
71773;SDS011;59607;52.130;5.430;2023-04-24T04:44:51;3.58;;;2.17;;
71773;SDS011;59607;52.130;5.430;2023-04-24T04:47:17;3.75;;;2.72;;
71773;SDS011;59607;52.130;5.430;2023-04-24T04:49:54;2.87;;;2.53;;
71773;SDS011;59607;52.130;5.430;2023-04-24T04:52:21;2.70;;;2.50;;
71773;SDS011;59607;52.130;5.430;2023-04-24T04:54:51;3.08;;;2.78;;
71773;SDS011;59607;52.130;5.430;2023-04-24T04:57:20;2.70;;;2.50;;
71773;SDS011;59607;52.130;5.430;2023-04-24T04:59:47;2.92;;;2.72;;
71773;SDS011;59607;52.130;5.430;2023-04-24T05:02:29;2.60;;;2.30;;
71773;SDS011;59607;52.130;5.430;2023-04-24T05:05:00;3.30;;;2.88;;
71773;SDS011;59607;52.130;5.430;2023-04-24T05:07:27;3.38;;;2.83;;
71773;SDS011;59607;52.130;5.430;2023-04-24T05:09:53;2.50;;;2.20;;
71773;SDS011;59607;52.130;5.430;2023-04-24T05:12:34;2.13;;;1.92;;
71773;SDS011;59607;52.130;5.430;2023-04-24T05:15:03;2.40;;;2.10;;
71773;SDS011;59607;52.130;5.430;2023-04-24T05:17:32;3.08;;;2.25;;
71773;SDS011;59607;52.130;5.430;2023-04-24T05:20:03;2.88;;;2.20;;
71773;SDS011;59607;52.130;5.430;2023-04-24T05:22:36;2.03;;;1.83;;
71773;SDS011;59607;52.130;5.430;2023-04-24T05:25:08;2.33;;;2.13;;
71773;SDS011;59607;52.130;5.430;2023-04-24T05:27:37;3.40;;;2.60;;
71773;SDS011;59607;52.130;5.430;2023-04-24T05:30:07;2.20;;;1.67;;
71773;SDS011;59607;52.130;5.430;2023-04-24T05:32:38;2.63;;;2.30;;
71773;SDS011;59607;52.130;5.430;2023-04-24T05:35:06;2.58;;;1.55;;
71773;SDS011;59607;52.130;5.430;2023-04-24T05:37:51;3.05;;;2.20;;
71773;SDS011;59607;52.130;5.430;2023-04-24T05:40:20;2.67;;;1.80;;
71773;SDS011;59607;52.130;5.430;2023-04-24T05:42:47;2.08;;;1.88;;
71773;SDS011;59607;52.130;5.430;2023-04-24T05:45:13;3.60;;;1.92;;
71773;SDS011;59607;52.130;5.430;2023-04-24T05:47:45;2.92;;;2.00;;
71773;SDS011;59607;52.130;5.430;2023-04-24T05:50:11;5.18;;;2.20;;
71773;SDS011;59607;52.130;5.430;2023-04-24T05:52:38;2.50;;;1.93;;
71773;SDS011;59607;52.130;5.430;2023-04-24T05:55:09;15.93;;;2.60;;
71773;SDS011;59607;52.130;5.430;2023-04-24T05:57:35;3.72;;;1.67;;
71773;SDS011;59607;52.130;5.430;2023-04-24T06:00:02;2.42;;;1.60;;
71773;SDS011;59607;52.130;5.430;2023-04-24T06:02:34;2.13;;;1.38;;
71773;SDS011;59607;52.130;5.430;2023-04-24T06:05:01;1.70;;;1.37;;
71773;SDS011;59607;52.130;5.430;2023-04-24T06:07:31;2.28;;;1.20;;
71773;SDS011;59607;52.130;5.430;2023-04-24T06:09:57;2.25;;;1.00;;
71773;SDS011;59607;52.130;5.430;2023-04-24T06:12:24;1.65;;;0.90;;
71773;SDS011;59607;52.130;5.430;2023-04-24T06:15:02;1.23;;;1.05;;
71773;SDS011;59607;52.130;5.430;2023-04-24T06:17:29;2.10;;;0.70;;
71773;SDS011;59607;52.130;5.430;2023-04-24T06:19:59;1.80;;;0.85;;
71773;SDS011;59607;52.130;5.430;2023-04-24T06:22:38;1.40;;;0.40;;
71773;SDS011;59607;52.130;5.430;2023-04-24T06:25:08;0.57;;;0.30;;
71773;SDS011;59607;52.130;5.430;2023-04-24T06:27:35;1.95;;;0.40;;
71773;SDS011;59607;52.130;5.430;2023-04-24T06:30:02;1.07;;;0.20;;
71773;SDS011;59607;52.130;5.430;2023-04-24T06:32:36;0.50;;;0.20;;
71773;SDS011;59607;52.130;5.430;2023-04-24T06:35:05;0.50;;;0.20;;
71773;SDS011;59607;52.130;5.430;2023-04-24T06:37:39;0.60;;;0.20;;
71773;SDS011;59607;52.130;5.430;2023-04-24T06:40:15;1.05;;;0.30;;
71773;SDS011;59607;52.130;5.430;2023-04-24T06:42:42;0.77;;;0.40;;
71773;SDS011;59607;52.130;5.430;2023-04-24T06:45:08;2.65;;;0.40;;
71773;SDS011;59607;52.130;5.430;2023-04-24T06:47:41;2.65;;;1.30;;
71773;SDS011;59607;52.130;5.430;2023-04-24T06:50:08;3.45;;;1.80;;
71773;SDS011;59607;52.130;5.430;2023-04-24T06:52:43;3.38;;;2.40;;
71773;SDS011;59607;52.130;5.430;2023-04-24T06:55:10;5.33;;;3.17;;
71773;SDS011;59607;52.130;5.430;2023-04-24T06:57:40;5.78;;;3.50;;
71773;SDS011;59607;52.130;5.430;2023-04-24T07:00:07;5.97;;;3.88;;
71773;SDS011;59607;52.130;5.430;2023-04-24T07:02:35;5.63;;;3.42;;
71773;SDS011;59607;52.130;5.430;2023-04-24T07:05:05;6.43;;;4.05;;
71773;SDS011;59607;52.130;5.430;2023-04-24T07:07:35;5.60;;;4.30;;
71773;SDS011;59607;52.130;5.430;2023-04-24T07:10:05;5.50;;;4.40;;
71773;SDS011;59607;52.130;5.430;2023-04-24T07:12:38;8.60;;;4.18;;
71773;SDS011;59607;52.130;5.430;2023-04-24T07:15:11;6.85;;;4.00;;
71773;SDS011;59607;52.130;5.430;2023-04-24T07:17:40;6.10;;;4.28;;
71773;SDS011;59607;52.130;5.430;2023-04-24T07:20:13;5.43;;;4.23;;
71773;SDS011;59607;52.130;5.430;2023-04-24T07:22:47;7.43;;;3.90;;
71773;SDS011;59607;52.130;5.430;2023-04-24T07:25:17;7.68;;;3.97;;
71773;SDS011;59607;52.130;5.430;2023-04-24T07:27:46;7.60;;;3.55;;
71773;SDS011;59607;52.130;5.430;2023-04-24T07:30:17;6.18;;;4.30;;
71773;SDS011;59607;52.130;5.430;2023-04-24T07:32:46;5.67;;;3.70;;
71773;SDS011;59607;52.130;5.430;2023-04-24T07:35:13;8.85;;;3.83;;
71773;SDS011;59607;52.130;5.430;2023-04-24T07:37:40;9.38;;;3.55;;
71773;SDS011;59607;52.130;5.430;2023-04-24T07:40:15;8.55;;;4.07;;
71773;SDS011;59607;52.130;5.430;2023-04-24T07:42:41;4.45;;;3.28;;
71773;SDS011;59607;52.130;5.430;2023-04-24T07:45:14;5.70;;;3.57;;
71773;SDS011;59607;52.130;5.430;2023-04-24T07:47:46;5.93;;;3.15;;
71773;SDS011;59607;52.130;5.430;2023-04-24T07:50:16;6.43;;;3.20;;
71773;SDS011;59607;52.130;5.430;2023-04-24T07:52:43;7.30;;;3.13;;
71773;SDS011;59607;52.130;5.430;2023-04-24T07:55:12;6.50;;;3.63;;
71773;SDS011;59607;52.130;5.430;2023-04-24T07:57:42;4.50;;;3.03;;
71773;SDS011;59607;52.130;5.430;2023-04-24T08:00:13;5.32;;;3.20;;
71773;SDS011;59607;52.130;5.430;2023-04-24T08:02:42;3.97;;;3.20;;
71773;SDS011;59607;52.130;5.430;2023-04-24T08:05:08;5.72;;;3.20;;
71773;SDS011;59607;52.130;5.430;2023-04-24T08:07:35;8.25;;;4.00;;
71773;SDS011;59607;52.130;5.430;2023-04-24T08:10:09;4.27;;;3.50;;
71773;SDS011;59607;52.130;5.430;2023-04-24T08:12:37;11.23;;;4.07;;
71773;SDS011;59607;52.130;5.430;2023-04-24T08:15:11;6.03;;;3.25;;
71773;SDS011;59607;52.130;5.430;2023-04-24T08:17:37;4.43;;;2.03;;
71773;SDS011;59607;52.130;5.430;2023-04-24T08:20:08;4.90;;;2.33;;
71773;SDS011;59607;52.130;5.430;2023-04-24T08:22:45;10.33;;;2.17;;
71773;SDS011;59607;52.130;5.430;2023-04-24T08:25:15;5.45;;;2.17;;
71773;SDS011;59607;52.130;5.430;2023-04-24T08:27:41;8.25;;;2.40;;
71773;SDS011;59607;52.130;5.430;2023-04-24T08:30:08;5.82;;;2.50;;
71773;SDS011;59607;52.130;5.430;2023-04-24T08:32:47;3.72;;;1.45;;
71773;SDS011;59607;52.130;5.430;2023-04-24T08:35:17;4.80;;;0.90;;
71773;SDS011;59607;52.130;5.430;2023-04-24T08:37:51;14.35;;;1.83;;
71773;SDS011;59607;52.130;5.430;2023-04-24T08:40:21;9.93;;;1.58;;
71773;SDS011;59607;52.130;5.430;2023-04-24T08:42:55;2.30;;;1.02;;
71773;SDS011;59607;52.130;5.430;2023-04-24T08:45:28;8.88;;;1.67;;
71773;SDS011;59607;52.130;5.430;2023-04-24T08:47:55;7.23;;;1.57;;
71773;SDS011;59607;52.130;5.430;2023-04-24T08:50:45;8.65;;;1.20;;
71773;SDS011;59607;52.130;5.430;2023-04-24T08:53:17;19.27;;;1.20;;
71773;SDS011;59607;52.130;5.430;2023-04-24T08:55:47;8.15;;;1.13;;
71773;SDS011;59607;52.130;5.430;2023-04-24T08:58:16;5.53;;;1.52;;
71773;SDS011;59607;52.130;5.430;2023-04-24T09:00:43;8.20;;;1.00;;
71773;SDS011;59607;52.130;5.430;2023-04-24T09:03:18;9.52;;;0.88;;
71773;SDS011;59607;52.130;5.430;2023-04-24T09:05:46;7.40;;;0.88;;
71773;SDS011;59607;52.130;5.430;2023-04-24T09:08:17;4.65;;;1.27;;
71773;SDS011;59607;52.130;5.430;2023-04-24T09:10:48;7.30;;;0.98;;
71773;SDS011;59607;52.130;5.430;2023-04-24T09:13:24;6.93;;;0.70;;
71773;SDS011;59607;52.130;5.430;2023-04-24T09:15:52;11.52;;;1.15;;
71773;SDS011;59607;52.130;5.430;2023-04-24T09:18:21;4.95;;;0.80;;
71773;SDS011;59607;52.130;5.430;2023-04-24T09:21:09;8.07;;;0.70;;
71773;SDS011;59607;52.130;5.430;2023-04-24T09:23:35;6.22;;;1.00;;
71773;SDS011;59607;52.130;5.430;2023-04-24T09:26:05;5.80;;;1.00;;
71773;SDS011;59607;52.130;5.430;2023-04-24T09:31:14;6.93;;;0.95;;
71773;SDS011;59607;52.130;5.430;2023-04-24T09:33:53;7.80;;;0.95;;
71773;SDS011;59607;52.130;5.430;2023-04-24T09:36:40;9.45;;;1.05;;
71773;SDS011;59607;52.130;5.430;2023-04-24T09:39:09;8.17;;;0.70;;
71773;SDS011;59607;52.130;5.430;2023-04-24T09:41:45;8.60;;;1.45;;
71773;SDS011;59607;52.130;5.430;2023-04-24T09:44:18;6.40;;;0.77;;
71773;SDS011;59607;52.130;5.430;2023-04-24T09:46:50;6.30;;;0.82;;
71773;SDS011;59607;52.130;5.430;2023-04-24T09:49:21;7.63;;;0.88;;
71773;SDS011;59607;52.130;5.430;2023-04-24T09:51:51;13.43;;;0.77;;
71773;SDS011;59607;52.130;5.430;2023-04-24T09:54:19;1.27;;;0.80;;
71773;SDS011;59607;52.130;5.430;2023-04-24T09:56:52;2.30;;;0.85;;
71773;SDS011;59607;52.130;5.430;2023-04-24T09:59:29;7.05;;;0.90;;
71773;SDS011;59607;52.130;5.430;2023-04-24T10:01:56;4.20;;;0.65;;
71773;SDS011;59607;52.130;5.430;2023-04-24T10:04:28;5.03;;;0.60;;
71773;SDS011;59607;52.130;5.430;2023-04-24T10:06:57;8.10;;;0.80;;
71773;SDS011;59607;52.130;5.430;2023-04-24T10:09:24;4.03;;;1.02;;
71773;SDS011;59607;52.130;5.430;2023-04-24T10:11:56;3.35;;;0.57;;
71773;SDS011;59607;52.130;5.430;2023-04-24T10:14:23;6.22;;;1.00;;
71773;SDS011;59607;52.130;5.430;2023-04-24T10:17:06;2.67;;;0.60;;
71773;SDS011;59607;52.130;5.430;2023-04-24T10:19:37;3.92;;;0.90;;
71773;SDS011;59607;52.130;5.430;2023-04-24T10:22:06;2.45;;;0.70;;
71773;SDS011;59607;52.130;5.430;2023-04-24T10:24:34;4.32;;;0.60;;
71773;SDS011;59607;52.130;5.430;2023-04-24T10:27:05;4.65;;;0.85;;
71773;SDS011;59607;52.130;5.430;2023-04-24T10:29:33;4.00;;;0.60;;
71773;SDS011;59607;52.130;5.430;2023-04-24T10:32:08;5.43;;;0.65;;
71773;SDS011;59607;52.130;5.430;2023-04-24T10:34:35;2.85;;;0.40;;
71773;SDS011;59607;52.130;5.430;2023-04-24T10:37:05;2.88;;;0.63;;
71773;SDS011;59607;52.130;5.430;2023-04-24T10:39:32;4.43;;;0.35;;
71773;SDS011;59607;52.130;5.430;2023-04-24T10:41:59;3.90;;;0.40;;
71773;SDS011;59607;52.130;5.430;2023-04-24T10:44:36;1.60;;;0.20;;
71773;SDS011;59607;52.130;5.430;2023-04-24T10:47:03;1.05;;;0.40;;
71773;SDS011;59607;52.130;5.430;2023-04-24T10:49:32;1.65;;;0.47;;
71773;SDS011;59607;52.130;5.430;2023-04-24T10:52:00;2.40;;;0.20;;
71773;SDS011;59607;52.130;5.430;2023-04-24T10:54:35;1.53;;;0.20;;
71773;SDS011;59607;52.130;5.430;2023-04-24T10:59:51;5.07;;;0.30;;
71773;SDS011;59607;52.130;5.430;2023-04-24T11:02:50;1.20;;;0.30;;
71773;SDS011;59607;52.130;5.430;2023-04-24T11:08:21;3.33;;;0.33;;
71773;SDS011;59607;52.130;5.430;2023-04-24T11:11:03;1.58;;;0.30;;
71773;SDS011;59607;52.130;5.430;2023-04-24T11:19:24;2.85;;;0.60;;
71773;SDS011;59607;52.130;5.430;2023-04-24T11:22:00;4.80;;;0.30;;
71773;SDS011;59607;52.130;5.430;2023-04-24T11:24:39;5.38;;;0.43;;
71773;SDS011;59607;52.130;5.430;2023-04-24T11:27:20;8.27;;;0.73;;
71773;SDS011;59607;52.130;5.430;2023-04-24T11:29:49;3.42;;;0.30;;
71773;SDS011;59607;52.130;5.430;2023-04-24T11:32:31;2.00;;;0.20;;
71773;SDS011;59607;52.130;5.430;2023-04-24T11:37:46;3.00;;;0.30;;
71773;SDS011;59607;52.130;5.430;2023-04-24T11:40:35;1.52;;;0.30;;
71773;SDS011;59607;52.130;5.430;2023-04-24T11:43:17;2.80;;;0.20;;
71773;SDS011;59607;52.130;5.430;2023-04-24T11:45:51;1.50;;;0.40;;
71773;SDS011;59607;52.130;5.430;2023-04-24T11:48:18;3.00;;;0.20;;
71773;SDS011;59607;52.130;5.430;2023-04-24T11:50:55;1.55;;;0.20;;
71773;SDS011;59607;52.130;5.430;2023-04-24T11:53:24;1.65;;;0.20;;
71773;SDS011;59607;52.130;5.430;2023-04-24T11:56:02;1.08;;;0.20;;
71773;SDS011;59607;52.130;5.430;2023-04-24T11:58:38;0.43;;;0.20;;
71773;SDS011;59607;52.130;5.430;2023-04-24T12:01:05;1.33;;;0.20;;
71773;SDS011;59607;52.130;5.430;2023-04-24T12:03:41;0.47;;;0.10;;
71773;SDS011;59607;52.130;5.430;2023-04-24T12:06:22;0.88;;;0.20;;
71773;SDS011;59607;52.130;5.430;2023-04-24T12:08:49;1.40;;;0.20;;
71773;SDS011;59607;52.130;5.430;2023-04-24T12:11:58;0.55;;;0.25;;
71773;SDS011;59607;52.130;5.430;2023-04-24T12:14:28;1.07;;;0.20;;
71773;SDS011;59607;52.130;5.430;2023-04-24T12:16:55;0.98;;;0.20;;
71773;SDS011;59607;52.130;5.430;2023-04-24T12:19:29;3.00;;;0.30;;
71773;SDS011;59607;52.130;5.430;2023-04-24T12:21:59;4.97;;;0.20;;
71773;SDS011;59607;52.130;5.430;2023-04-24T12:24:34;0.80;;;0.35;;
71773;SDS011;59607;52.130;5.430;2023-04-24T12:27:01;0.70;;;0.20;;
71773;SDS011;59607;52.130;5.430;2023-04-24T12:29:31;3.70;;;0.30;;
71773;SDS011;59607;52.130;5.430;2023-04-24T12:32:00;3.45;;;0.52;;
71773;SDS011;59607;52.130;5.430;2023-04-24T12:34:32;1.95;;;0.30;;
71773;SDS011;59607;52.130;5.430;2023-04-24T12:37:09;1.67;;;0.25;;
71773;SDS011;59607;52.130;5.430;2023-04-24T12:39:57;3.03;;;0.77;;
71773;SDS011;59607;52.130;5.430;2023-04-24T12:42:29;6.65;;;0.57;;
71773;SDS011;59607;52.130;5.430;2023-04-24T12:44:59;1.25;;;0.30;;
71773;SDS011;59607;52.130;5.430;2023-04-24T12:47:29;1.90;;;0.30;;
71773;SDS011;59607;52.130;5.430;2023-04-24T12:49:58;3.65;;;0.70;;
71773;SDS011;59607;52.130;5.430;2023-04-24T12:52:29;2.07;;;0.30;;
71773;SDS011;59607;52.130;5.430;2023-04-24T12:54:57;4.60;;;0.60;;
71773;SDS011;59607;52.130;5.430;2023-04-24T12:57:28;8.73;;;0.73;;
71773;SDS011;59607;52.130;5.430;2023-04-24T12:59:58;2.13;;;0.55;;
71773;SDS011;59607;52.130;5.430;2023-04-24T13:02:35;3.58;;;0.50;;
71773;SDS011;59607;52.130;5.430;2023-04-24T13:05:03;6.27;;;0.77;;
71773;SDS011;59607;52.130;5.430;2023-04-24T13:07:37;4.97;;;0.55;;
71773;SDS011;59607;52.130;5.430;2023-04-24T13:10:03;4.65;;;0.70;;
71773;SDS011;59607;52.130;5.430;2023-04-24T13:12:30;3.35;;;0.50;;
71773;SDS011;59607;52.130;5.430;2023-04-24T13:15:01;5.72;;;0.65;;
71773;SDS011;59607;52.130;5.430;2023-04-24T13:17:27;6.90;;;0.70;;
71773;SDS011;59607;52.130;5.430;2023-04-24T13:19:55;5.03;;;0.63;;
71773;SDS011;59607;52.130;5.430;2023-04-24T13:22:25;8.80;;;0.88;;
71773;SDS011;59607;52.130;5.430;2023-04-24T13:24:51;7.70;;;0.70;;
71773;SDS011;59607;52.130;5.430;2023-04-24T13:27:18;5.82;;;0.93;;
71773;SDS011;59607;52.130;5.430;2023-04-24T13:29:44;5.47;;;0.60;;
71773;SDS011;59607;52.130;5.430;2023-04-24T13:32:19;7.35;;;0.70;;
71773;SDS011;59607;52.130;5.430;2023-04-24T13:34:49;6.20;;;1.20;;
71773;SDS011;59607;52.130;5.430;2023-04-24T13:37:17;9.43;;;1.23;;
71773;SDS011;59607;52.130;5.430;2023-04-24T13:39:45;3.90;;;0.80;;
71773;SDS011;59607;52.130;5.430;2023-04-24T13:42:12;5.37;;;0.60;;
71773;SDS011;59607;52.130;5.430;2023-04-24T13:44:43;4.97;;;0.70;;
71773;SDS011;59607;52.130;5.430;2023-04-24T13:47:09;4.18;;;0.65;;
71773;SDS011;59607;52.130;5.430;2023-04-24T13:49:41;10.38;;;0.90;;
71773;SDS011;59607;52.130;5.430;2023-04-24T13:52:07;6.90;;;0.88;;
71773;SDS011;59607;52.130;5.430;2023-04-24T13:54:39;4.60;;;0.80;;
71773;SDS011;59607;52.130;5.430;2023-04-24T13:57:10;8.52;;;0.80;;
71773;SDS011;59607;52.130;5.430;2023-04-24T13:59:36;4.00;;;0.90;;
71773;SDS011;59607;52.130;5.430;2023-04-24T14:02:04;5.63;;;1.17;;
71773;SDS011;59607;52.130;5.430;2023-04-24T14:04:33;5.55;;;1.00;;
71773;SDS011;59607;52.130;5.430;2023-04-24T14:07:03;9.80;;;1.20;;
71773;SDS011;59607;52.130;5.430;2023-04-24T14:09:32;7.50;;;1.20;;
71773;SDS011;59607;52.130;5.430;2023-04-24T14:11:59;7.63;;;1.23;;
71773;SDS011;59607;52.130;5.430;2023-04-24T14:14:39;4.15;;;0.77;;
71773;SDS011;59607;52.130;5.430;2023-04-24T14:17:05;6.95;;;1.65;;
71773;SDS011;59607;52.130;5.430;2023-04-24T14:19:32;5.90;;;0.80;;
71773;SDS011;59607;52.130;5.430;2023-04-24T14:21:59;8.23;;;1.30;;
71773;SDS011;59607;52.130;5.430;2023-04-24T14:24:26;7.50;;;0.90;;
71773;SDS011;59607;52.130;5.430;2023-04-24T14:26:52;5.72;;;1.05;;
71773;SDS011;59607;52.130;5.430;2023-04-24T14:29:19;6.32;;;1.05;;
71773;SDS011;59607;52.130;5.430;2023-04-24T14:31:48;4.57;;;0.80;;
71773;SDS011;59607;52.130;5.430;2023-04-24T14:34:18;4.30;;;0.90;;
71773;SDS011;59607;52.130;5.430;2023-04-24T14:36:50;8.60;;;1.10;;
71773;SDS011;59607;52.130;5.430;2023-04-24T14:39:17;5.93;;;1.40;;
71773;SDS011;59607;52.130;5.430;2023-04-24T14:41:44;7.22;;;1.23;;
71773;SDS011;59607;52.130;5.430;2023-04-24T14:44:15;6.43;;;1.40;;
71773;SDS011;59607;52.130;5.430;2023-04-24T14:46:42;6.55;;;1.10;;
71773;SDS011;59607;52.130;5.430;2023-04-24T14:49:15;10.30;;;1.50;;
71773;SDS011;59607;52.130;5.430;2023-04-24T14:51:42;11.45;;;1.65;;
71773;SDS011;59607;52.130;5.430;2023-04-24T14:54:20;4.15;;;1.20;;
71773;SDS011;59607;52.130;5.430;2023-04-24T14:56:55;7.80;;;1.57;;
71773;SDS011;59607;52.130;5.430;2023-04-24T14:59:27;6.63;;;0.95;;
71773;SDS011;59607;52.130;5.430;2023-04-24T15:01:58;7.88;;;1.50;;
71773;SDS011;59607;52.130;5.430;2023-04-24T15:04:43;3.83;;;0.95;;
71773;SDS011;59607;52.130;5.430;2023-04-24T15:07:10;3.72;;;0.98;;
71773;SDS011;59607;52.130;5.430;2023-04-24T15:09:37;6.70;;;1.50;;
71773;SDS011;59607;52.130;5.430;2023-04-24T15:12:09;7.60;;;1.08;;
71773;SDS011;59607;52.130;5.430;2023-04-24T15:14:38;7.72;;;1.88;;
71773;SDS011;59607;52.130;5.430;2023-04-24T15:17:10;3.58;;;0.93;;
71773;SDS011;59607;52.130;5.430;2023-04-24T15:19:37;5.97;;;1.13;;
71773;SDS011;59607;52.130;5.430;2023-04-24T15:22:03;7.80;;;1.17;;
71773;SDS011;59607;52.130;5.430;2023-04-24T15:24:36;4.80;;;1.25;;